sensor_id;sensor_type;location;lat;lon;timestamp;P1;durP1;ratioP1;P2;durP2;ratioP2
76826;SDS011;65788;52.284;20.890;2023-11-21T00:00:02;7.60;;;4.50;;
76826;SDS011;65788;52.284;20.890;2023-11-21T00:02:31;7.60;;;4.30;;
76826;SDS011;65788;52.284;20.890;2023-11-21T00:04:58;5.50;;;3.90;;
76826;SDS011;65788;52.284;20.890;2023-11-21T00:07:25;7.50;;;4.10;;
76826;SDS011;65788;52.284;20.890;2023-11-21T00:09:52;7.60;;;4.60;;
76826;SDS011;65788;52.284;20.890;2023-11-21T00:12:22;7.00;;;4.20;;
76826;SDS011;65788;52.284;20.890;2023-11-21T00:14:51;8.40;;;4.60;;
76826;SDS011;65788;52.284;20.890;2023-11-21T00:17:18;8.00;;;4.60;;
76826;SDS011;65788;52.284;20.890;2023-11-21T00:19:45;5.70;;;4.20;;
76826;SDS011;65788;52.284;20.890;2023-11-21T00:22:12;6.40;;;4.30;;
76826;SDS011;65788;52.284;20.890;2023-11-21T00:24:39;7.40;;;3.90;;
76826;SDS011;65788;52.284;20.890;2023-11-21T00:27:06;5.80;;;4.10;;
76826;SDS011;65788;52.284;20.890;2023-11-21T00:29:33;7.30;;;4.50;;
76826;SDS011;65788;52.284;20.890;2023-11-21T00:32:00;7.10;;;4.50;;
76826;SDS011;65788;52.284;20.890;2023-11-21T00:34:27;8.30;;;4.60;;
76826;SDS011;65788;52.284;20.890;2023-11-21T00:36:54;7.20;;;3.60;;
76826;SDS011;65788;52.284;20.890;2023-11-21T00:39:21;6.40;;;4.00;;
76826;SDS011;65788;52.284;20.890;2023-11-21T00:41:48;8.00;;;4.00;;
76826;SDS011;65788;52.284;20.890;2023-11-21T00:44:15;6.90;;;4.50;;
76826;SDS011;65788;52.284;20.890;2023-11-21T00:46:42;6.20;;;4.10;;
76826;SDS011;65788;52.284;20.890;2023-11-21T00:49:09;6.90;;;4.20;;
76826;SDS011;65788;52.284;20.890;2023-11-21T00:51:37;6.00;;;3.80;;
76826;SDS011;65788;52.284;20.890;2023-11-21T00:54:04;6.30;;;4.10;;
76826;SDS011;65788;52.284;20.890;2023-11-21T00:59:00;6.30;;;4.50;;
76826;SDS011;65788;52.284;20.890;2023-11-21T01:01:27;5.90;;;3.70;;
76826;SDS011;65788;52.284;20.890;2023-11-21T01:03:54;6.50;;;3.80;;
76826;SDS011;65788;52.284;20.890;2023-11-21T01:06:21;7.40;;;3.80;;
76826;SDS011;65788;52.284;20.890;2023-11-21T01:08:48;6.90;;;3.90;;
76826;SDS011;65788;52.284;20.890;2023-11-21T01:11:15;6.00;;;3.80;;
76826;SDS011;65788;52.284;20.890;2023-11-21T01:13:42;5.90;;;3.90;;
76826;SDS011;65788;52.284;20.890;2023-11-21T01:16:11;7.70;;;4.10;;
76826;SDS011;65788;52.284;20.890;2023-11-21T01:18:38;5.80;;;3.70;;
76826;SDS011;65788;52.284;20.890;2023-11-21T01:21:05;6.10;;;3.80;;
76826;SDS011;65788;52.284;20.890;2023-11-21T01:23:35;4.70;;;3.60;;
76826;SDS011;65788;52.284;20.890;2023-11-21T01:26:02;6.10;;;4.10;;
76826;SDS011;65788;52.284;20.890;2023-11-21T01:28:29;8.00;;;4.40;;
76826;SDS011;65788;52.284;20.890;2023-11-21T01:30:56;6.40;;;4.00;;
76826;SDS011;65788;52.284;20.890;2023-11-21T01:33:24;6.10;;;4.00;;
76826;SDS011;65788;52.284;20.890;2023-11-21T01:35:51;6.80;;;3.70;;
76826;SDS011;65788;52.284;20.890;2023-11-21T01:38:21;7.50;;;4.30;;
76826;SDS011;65788;52.284;20.890;2023-11-21T01:40:48;4.70;;;3.40;;
76826;SDS011;65788;52.284;20.890;2023-11-21T01:43:15;5.40;;;3.80;;
76826;SDS011;65788;52.284;20.890;2023-11-21T01:45:43;6.00;;;3.90;;
76826;SDS011;65788;52.284;20.890;2023-11-21T01:48:12;5.80;;;3.80;;
76826;SDS011;65788;52.284;20.890;2023-11-21T01:50:40;5.30;;;3.70;;
76826;SDS011;65788;52.284;20.890;2023-11-21T01:53:08;6.40;;;4.10;;
76826;SDS011;65788;52.284;20.890;2023-11-21T01:55:35;6.60;;;4.20;;
76826;SDS011;65788;52.284;20.890;2023-11-21T01:58:05;5.80;;;4.10;;
76826;SDS011;65788;52.284;20.890;2023-11-21T02:00:34;5.80;;;4.20;;
76826;SDS011;65788;52.284;20.890;2023-11-21T02:03:02;5.20;;;4.00;;
76826;SDS011;65788;52.284;20.890;2023-11-21T02:05:31;6.60;;;3.80;;
76826;SDS011;65788;52.284;20.890;2023-11-21T02:08:00;6.80;;;4.90;;
76826;SDS011;65788;52.284;20.890;2023-11-21T02:10:30;4.60;;;3.40;;
76826;SDS011;65788;52.284;20.890;2023-11-21T02:12:57;5.30;;;3.60;;
76826;SDS011;65788;52.284;20.890;2023-11-21T02:15:25;5.30;;;4.00;;
76826;SDS011;65788;52.284;20.890;2023-11-21T02:17:55;5.90;;;4.20;;
76826;SDS011;65788;52.284;20.890;2023-11-21T02:20:24;6.10;;;4.00;;
76826;SDS011;65788;52.284;20.890;2023-11-21T02:22:53;7.00;;;3.90;;
76826;SDS011;65788;52.284;20.890;2023-11-21T02:25:30;6.50;;;4.20;;
76826;SDS011;65788;52.284;20.890;2023-11-21T02:28:02;6.20;;;4.10;;
76826;SDS011;65788;52.284;20.890;2023-11-21T02:30:32;5.20;;;3.70;;
76826;SDS011;65788;52.284;20.890;2023-11-21T02:32:59;6.00;;;3.80;;
76826;SDS011;65788;52.284;20.890;2023-11-21T02:35:27;5.90;;;4.20;;
76826;SDS011;65788;52.284;20.890;2023-11-21T02:37:55;5.70;;;3.80;;
76826;SDS011;65788;52.284;20.890;2023-11-21T02:40:22;4.40;;;3.50;;
76826;SDS011;65788;52.284;20.890;2023-11-21T02:42:51;6.00;;;4.10;;
76826;SDS011;65788;52.284;20.890;2023-11-21T02:45:19;5.80;;;3.80;;
76826;SDS011;65788;52.284;20.890;2023-11-21T02:50:34;6.50;;;4.30;;
76826;SDS011;65788;52.284;20.890;2023-11-21T02:53:03;7.00;;;4.50;;
76826;SDS011;65788;52.284;20.890;2023-11-21T02:55:32;5.30;;;3.60;;
76826;SDS011;65788;52.284;20.890;2023-11-21T02:58:02;4.60;;;3.60;;
76826;SDS011;65788;52.284;20.890;2023-11-21T03:00:32;5.60;;;4.10;;
76826;SDS011;65788;52.284;20.890;2023-11-21T03:02:59;5.10;;;3.50;;
76826;SDS011;65788;52.284;20.890;2023-11-21T03:05:27;4.90;;;3.40;;
76826;SDS011;65788;52.284;20.890;2023-11-21T03:07:55;5.00;;;3.50;;
76826;SDS011;65788;52.284;20.890;2023-11-21T03:10:22;4.90;;;3.60;;
76826;SDS011;65788;52.284;20.890;2023-11-21T03:12:53;7.00;;;4.40;;
76826;SDS011;65788;52.284;20.890;2023-11-21T03:15:20;4.60;;;3.70;;
76826;SDS011;65788;52.284;20.890;2023-11-21T03:17:46;6.00;;;3.80;;
76826;SDS011;65788;52.284;20.890;2023-11-21T03:20:15;5.40;;;3.80;;
76826;SDS011;65788;52.284;20.890;2023-11-21T03:22:43;4.80;;;3.60;;
76826;SDS011;65788;52.284;20.890;2023-11-21T03:25:15;5.00;;;3.50;;
76826;SDS011;65788;52.284;20.890;2023-11-21T03:27:43;5.30;;;3.70;;
76826;SDS011;65788;52.284;20.890;2023-11-21T03:30:11;5.20;;;3.60;;
76826;SDS011;65788;52.284;20.890;2023-11-21T03:32:38;4.90;;;3.30;;
76826;SDS011;65788;52.284;20.890;2023-11-21T03:35:05;4.40;;;3.50;;
76826;SDS011;65788;52.284;20.890;2023-11-21T03:37:33;5.00;;;3.60;;
76826;SDS011;65788;52.284;20.890;2023-11-21T03:40:00;4.70;;;3.40;;
76826;SDS011;65788;52.284;20.890;2023-11-21T03:42:27;5.10;;;3.30;;
76826;SDS011;65788;52.284;20.890;2023-11-21T03:44:54;4.90;;;3.50;;
76826;SDS011;65788;52.284;20.890;2023-11-21T03:47:21;4.20;;;3.50;;
76826;SDS011;65788;52.284;20.890;2023-11-21T03:49:49;4.70;;;3.80;;
76826;SDS011;65788;52.284;20.890;2023-11-21T03:52:16;5.00;;;3.60;;
76826;SDS011;65788;52.284;20.890;2023-11-21T03:54:43;4.80;;;3.60;;
76826;SDS011;65788;52.284;20.890;2023-11-21T03:57:10;4.90;;;3.60;;
76826;SDS011;65788;52.284;20.890;2023-11-21T03:59:41;5.10;;;3.60;;
76826;SDS011;65788;52.284;20.890;2023-11-21T04:02:08;5.30;;;3.80;;
76826;SDS011;65788;52.284;20.890;2023-11-21T04:04:36;4.80;;;3.60;;
76826;SDS011;65788;52.284;20.890;2023-11-21T04:07:03;6.70;;;3.90;;
76826;SDS011;65788;52.284;20.890;2023-11-21T04:09:30;5.10;;;3.90;;
76826;SDS011;65788;52.284;20.890;2023-11-21T04:11:58;5.90;;;4.10;;
76826;SDS011;65788;52.284;20.890;2023-11-21T04:14:25;5.20;;;3.70;;
76826;SDS011;65788;52.284;20.890;2023-11-21T04:16:51;4.50;;;3.40;;
76826;SDS011;65788;52.284;20.890;2023-11-21T04:19:20;6.70;;;3.70;;
76826;SDS011;65788;52.284;20.890;2023-11-21T04:21:47;6.00;;;3.60;;
76826;SDS011;65788;52.284;20.890;2023-11-21T04:24:14;5.00;;;3.50;;
76826;SDS011;65788;52.284;20.890;2023-11-21T04:26:41;7.00;;;3.70;;
76826;SDS011;65788;52.284;20.890;2023-11-21T04:29:08;5.20;;;3.80;;
76826;SDS011;65788;52.284;20.890;2023-11-21T04:31:35;5.40;;;3.50;;
76826;SDS011;65788;52.284;20.890;2023-11-21T04:34:03;5.70;;;3.40;;
76826;SDS011;65788;52.284;20.890;2023-11-21T04:36:30;6.10;;;3.60;;
76826;SDS011;65788;52.284;20.890;2023-11-21T04:38:57;5.90;;;3.60;;
76826;SDS011;65788;52.284;20.890;2023-11-21T04:41:27;6.80;;;3.20;;
76826;SDS011;65788;52.284;20.890;2023-11-21T04:43:54;7.20;;;3.20;;
76826;SDS011;65788;52.284;20.890;2023-11-21T04:46:21;4.50;;;3.20;;
76826;SDS011;65788;52.284;20.890;2023-11-21T04:48:48;5.40;;;3.30;;
76826;SDS011;65788;52.284;20.890;2023-11-21T04:51:15;7.10;;;3.30;;
76826;SDS011;65788;52.284;20.890;2023-11-21T04:53:42;5.30;;;3.30;;
76826;SDS011;65788;52.284;20.890;2023-11-21T04:56:09;5.70;;;3.60;;
76826;SDS011;65788;52.284;20.890;2023-11-21T04:58:36;4.60;;;3.30;;
76826;SDS011;65788;52.284;20.890;2023-11-21T05:01:03;4.30;;;2.80;;
76826;SDS011;65788;52.284;20.890;2023-11-21T05:03:31;5.80;;;3.20;;
76826;SDS011;65788;52.284;20.890;2023-11-21T05:05:59;4.70;;;3.10;;
76826;SDS011;65788;52.284;20.890;2023-11-21T05:08:27;4.90;;;2.90;;
76826;SDS011;65788;52.284;20.890;2023-11-21T05:10:53;5.70;;;3.10;;
76826;SDS011;65788;52.284;20.890;2023-11-21T05:13:23;5.10;;;3.00;;
76826;SDS011;65788;52.284;20.890;2023-11-21T05:15:56;11.20;;;3.20;;
76826;SDS011;65788;52.284;20.890;2023-11-21T05:18:26;5.50;;;3.10;;
76826;SDS011;65788;52.284;20.890;2023-11-21T05:20:56;3.70;;;2.70;;
76826;SDS011;65788;52.284;20.890;2023-11-21T05:23:23;5.40;;;2.90;;
76826;SDS011;65788;52.284;20.890;2023-11-21T05:25:50;4.00;;;2.60;;
76826;SDS011;65788;52.284;20.890;2023-11-21T05:28:17;4.70;;;3.30;;
76826;SDS011;65788;52.284;20.890;2023-11-21T05:30:44;4.70;;;2.90;;
76826;SDS011;65788;52.284;20.890;2023-11-21T05:33:10;4.80;;;3.10;;
76826;SDS011;65788;52.284;20.890;2023-11-21T05:35:37;4.90;;;3.10;;
76826;SDS011;65788;52.284;20.890;2023-11-21T05:38:04;5.30;;;2.90;;
76826;SDS011;65788;52.284;20.890;2023-11-21T05:40:31;4.60;;;3.40;;
76826;SDS011;65788;52.284;20.890;2023-11-21T05:42:59;5.30;;;3.10;;
76826;SDS011;65788;52.284;20.890;2023-11-21T05:45:26;3.80;;;2.70;;
76826;SDS011;65788;52.284;20.890;2023-11-21T05:47:53;4.10;;;2.80;;
76826;SDS011;65788;52.284;20.890;2023-11-21T05:50:20;5.90;;;3.10;;
76826;SDS011;65788;52.284;20.890;2023-11-21T05:52:47;6.90;;;2.80;;
76826;SDS011;65788;52.284;20.890;2023-11-21T05:55:14;4.90;;;3.10;;
76826;SDS011;65788;52.284;20.890;2023-11-21T05:57:43;5.40;;;3.10;;
76826;SDS011;65788;52.284;20.890;2023-11-21T06:00:11;4.30;;;2.80;;
76826;SDS011;65788;52.284;20.890;2023-11-21T06:05:23;4.90;;;2.90;;
76826;SDS011;65788;52.284;20.890;2023-11-21T06:07:51;4.90;;;3.10;;
76826;SDS011;65788;52.284;20.890;2023-11-21T06:10:21;4.70;;;3.00;;
76826;SDS011;65788;52.284;20.890;2023-11-21T06:12:50;3.70;;;2.50;;
76826;SDS011;65788;52.284;20.890;2023-11-21T06:15:17;3.90;;;2.70;;
76826;SDS011;65788;52.284;20.890;2023-11-21T06:17:47;6.00;;;2.90;;
76826;SDS011;65788;52.284;20.890;2023-11-21T06:20:19;4.80;;;3.20;;
76826;SDS011;65788;52.284;20.890;2023-11-21T06:22:47;5.90;;;3.20;;
76826;SDS011;65788;52.284;20.890;2023-11-21T06:25:14;5.70;;;3.00;;
76826;SDS011;65788;52.284;20.890;2023-11-21T06:27:42;4.30;;;2.70;;
76826;SDS011;65788;52.284;20.890;2023-11-21T06:30:14;5.20;;;2.90;;
76826;SDS011;65788;52.284;20.890;2023-11-21T06:32:42;4.60;;;2.60;;
76826;SDS011;65788;52.284;20.890;2023-11-21T06:35:12;4.00;;;2.60;;
76826;SDS011;65788;52.284;20.890;2023-11-21T06:37:40;4.30;;;2.80;;
76826;SDS011;65788;52.284;20.890;2023-11-21T06:40:07;5.20;;;2.80;;
76826;SDS011;65788;52.284;20.890;2023-11-21T06:42:36;5.00;;;3.10;;
76826;SDS011;65788;52.284;20.890;2023-11-21T06:47:33;4.10;;;2.60;;
76826;SDS011;65788;52.284;20.890;2023-11-21T06:50:01;6.10;;;2.80;;
76826;SDS011;65788;52.284;20.890;2023-11-21T06:52:27;3.80;;;2.60;;
76826;SDS011;65788;52.284;20.890;2023-11-21T06:54:54;5.00;;;3.00;;
76826;SDS011;65788;52.284;20.890;2023-11-21T06:57:24;4.00;;;2.50;;
76826;SDS011;65788;52.284;20.890;2023-11-21T06:59:51;3.90;;;2.60;;
76826;SDS011;65788;52.284;20.890;2023-11-21T07:02:18;4.10;;;2.70;;
76826;SDS011;65788;52.284;20.890;2023-11-21T07:04:45;4.10;;;2.60;;
76826;SDS011;65788;52.284;20.890;2023-11-21T07:07:13;4.30;;;2.70;;
76826;SDS011;65788;52.284;20.890;2023-11-21T07:09:39;5.20;;;2.70;;
76826;SDS011;65788;52.284;20.890;2023-11-21T07:12:06;5.10;;;2.80;;
76826;SDS011;65788;52.284;20.890;2023-11-21T07:14:35;4.40;;;2.50;;
76826;SDS011;65788;52.284;20.890;2023-11-21T07:17:02;4.80;;;2.80;;
76826;SDS011;65788;52.284;20.890;2023-11-21T07:19:29;5.40;;;2.80;;
76826;SDS011;65788;52.284;20.890;2023-11-21T07:21:56;4.00;;;2.90;;
76826;SDS011;65788;52.284;20.890;2023-11-21T07:24:23;4.10;;;2.80;;
76826;SDS011;65788;52.284;20.890;2023-11-21T07:26:50;4.50;;;3.00;;
76826;SDS011;65788;52.284;20.890;2023-11-21T07:29:17;4.60;;;3.00;;
76826;SDS011;65788;52.284;20.890;2023-11-21T07:31:44;6.10;;;3.10;;
76826;SDS011;65788;52.284;20.890;2023-11-21T07:34:11;4.00;;;2.70;;
76826;SDS011;65788;52.284;20.890;2023-11-21T07:36:39;4.70;;;2.60;;
76826;SDS011;65788;52.284;20.890;2023-11-21T07:39:05;4.70;;;2.90;;
76826;SDS011;65788;52.284;20.890;2023-11-21T07:41:33;6.00;;;3.50;;
76826;SDS011;65788;52.284;20.890;2023-11-21T07:44:00;5.60;;;3.30;;
76826;SDS011;65788;52.284;20.890;2023-11-21T07:46:27;5.40;;;3.00;;
76826;SDS011;65788;52.284;20.890;2023-11-21T07:48:54;4.20;;;3.30;;
76826;SDS011;65788;52.284;20.890;2023-11-21T07:51:21;4.40;;;2.80;;
76826;SDS011;65788;52.284;20.890;2023-11-21T07:53:48;5.20;;;3.20;;
76826;SDS011;65788;52.284;20.890;2023-11-21T07:56:16;5.30;;;3.60;;
76826;SDS011;65788;52.284;20.890;2023-11-21T07:58:43;5.60;;;3.20;;
76826;SDS011;65788;52.284;20.890;2023-11-21T08:01:11;6.00;;;3.40;;
76826;SDS011;65788;52.284;20.890;2023-11-21T08:03:38;7.50;;;3.30;;
76826;SDS011;65788;52.284;20.890;2023-11-21T08:06:06;7.50;;;3.40;;
76826;SDS011;65788;52.284;20.890;2023-11-21T08:08:33;12.30;;;3.80;;
76826;SDS011;65788;52.284;20.890;2023-11-21T08:11:00;8.10;;;3.10;;
76826;SDS011;65788;52.284;20.890;2023-11-21T08:13:28;7.40;;;3.90;;
76826;SDS011;65788;52.284;20.890;2023-11-21T08:15:57;8.30;;;4.40;;
76826;SDS011;65788;52.284;20.890;2023-11-21T08:18:34;5.60;;;3.40;;
76826;SDS011;65788;52.284;20.890;2023-11-21T08:21:02;5.90;;;3.80;;
76826;SDS011;65788;52.284;20.890;2023-11-21T08:23:30;7.60;;;3.80;;
76826;SDS011;65788;52.284;20.890;2023-11-21T08:25:56;6.90;;;3.70;;
76826;SDS011;65788;52.284;20.890;2023-11-21T08:28:23;6.70;;;3.20;;
76826;SDS011;65788;52.284;20.890;2023-11-21T08:30:52;8.60;;;3.70;;
76826;SDS011;65788;52.284;20.890;2023-11-21T08:33:20;9.80;;;4.00;;
76826;SDS011;65788;52.284;20.890;2023-11-21T08:35:48;9.80;;;4.10;;
76826;SDS011;65788;52.284;20.890;2023-11-21T08:38:15;6.40;;;3.40;;
76826;SDS011;65788;52.284;20.890;2023-11-21T08:40:42;7.50;;;3.50;;
76826;SDS011;65788;52.284;20.890;2023-11-21T08:43:09;9.00;;;3.70;;
76826;SDS011;65788;52.284;20.890;2023-11-21T08:45:36;8.00;;;3.90;;
76826;SDS011;65788;52.284;20.890;2023-11-21T08:48:03;8.30;;;3.70;;
76826;SDS011;65788;52.284;20.890;2023-11-21T08:50:32;8.20;;;4.00;;
76826;SDS011;65788;52.284;20.890;2023-11-21T08:52:59;7.70;;;4.40;;
76826;SDS011;65788;52.284;20.890;2023-11-21T08:55:27;7.90;;;3.90;;
76826;SDS011;65788;52.284;20.890;2023-11-21T08:57:55;8.70;;;3.80;;
76826;SDS011;65788;52.284;20.890;2023-11-21T09:00:23;7.70;;;3.80;;
76826;SDS011;65788;52.284;20.890;2023-11-21T09:02:50;8.20;;;4.40;;
76826;SDS011;65788;52.284;20.890;2023-11-21T09:05:21;7.50;;;4.20;;
76826;SDS011;65788;52.284;20.890;2023-11-21T09:07:48;7.10;;;4.20;;
76826;SDS011;65788;52.284;20.890;2023-11-21T09:10:15;8.70;;;3.80;;
76826;SDS011;65788;52.284;20.890;2023-11-21T09:12:43;7.30;;;3.90;;
76826;SDS011;65788;52.284;20.890;2023-11-21T09:15:11;9.60;;;4.30;;
76826;SDS011;65788;52.284;20.890;2023-11-21T09:17:39;9.10;;;4.00;;
76826;SDS011;65788;52.284;20.890;2023-11-21T09:20:07;8.80;;;4.00;;
76826;SDS011;65788;52.284;20.890;2023-11-21T09:22:36;9.00;;;4.00;;
76826;SDS011;65788;52.284;20.890;2023-11-21T09:25:04;7.00;;;4.20;;
76826;SDS011;65788;52.284;20.890;2023-11-21T09:27:32;7.90;;;4.40;;
76826;SDS011;65788;52.284;20.890;2023-11-21T09:30:00;8.60;;;4.20;;
76826;SDS011;65788;52.284;20.890;2023-11-21T09:32:30;7.10;;;4.20;;
76826;SDS011;65788;52.284;20.890;2023-11-21T09:34:57;7.10;;;4.10;;
76826;SDS011;65788;52.284;20.890;2023-11-21T09:37:25;6.30;;;3.90;;
76826;SDS011;65788;52.284;20.890;2023-11-21T09:39:53;6.10;;;3.80;;
76826;SDS011;65788;52.284;20.890;2023-11-21T09:45:15;7.10;;;4.40;;
76826;SDS011;65788;52.284;20.890;2023-11-21T09:47:55;5.80;;;4.10;;
76826;SDS011;65788;52.284;20.890;2023-11-21T09:50:22;7.30;;;4.00;;
76826;SDS011;65788;52.284;20.890;2023-11-21T09:55:42;6.90;;;4.10;;
76826;SDS011;65788;52.284;20.890;2023-11-21T09:58:10;7.00;;;4.30;;
76826;SDS011;65788;52.284;20.890;2023-11-21T10:00:45;6.40;;;3.90;;
76826;SDS011;65788;52.284;20.890;2023-11-21T10:03:13;7.80;;;4.30;;
76826;SDS011;65788;52.284;20.890;2023-11-21T10:05:42;7.90;;;4.60;;
76826;SDS011;65788;52.284;20.890;2023-11-21T10:08:11;6.60;;;3.70;;
76826;SDS011;65788;52.284;20.890;2023-11-21T10:10:45;9.90;;;4.00;;
76826;SDS011;65788;52.284;20.890;2023-11-21T10:13:22;5.80;;;3.60;;
76826;SDS011;65788;52.284;20.890;2023-11-21T10:15:50;5.40;;;3.90;;
76826;SDS011;65788;52.284;20.890;2023-11-21T10:18:19;6.70;;;3.70;;
76826;SDS011;65788;52.284;20.890;2023-11-21T10:20:49;6.10;;;3.90;;
76826;SDS011;65788;52.284;20.890;2023-11-21T10:23:19;6.20;;;3.90;;
76826;SDS011;65788;52.284;20.890;2023-11-21T10:25:48;5.80;;;3.70;;
76826;SDS011;65788;52.284;20.890;2023-11-21T10:28:18;6.10;;;3.50;;
76826;SDS011;65788;52.284;20.890;2023-11-21T10:30:47;7.00;;;4.00;;
76826;SDS011;65788;52.284;20.890;2023-11-21T10:33:14;5.80;;;3.70;;
76826;SDS011;65788;52.284;20.890;2023-11-21T10:35:47;8.20;;;4.30;;
76826;SDS011;65788;52.284;20.890;2023-11-21T10:38:21;7.10;;;3.80;;
76826;SDS011;65788;52.284;20.890;2023-11-21T10:40:51;7.00;;;4.10;;
76826;SDS011;65788;52.284;20.890;2023-11-21T10:43:18;7.40;;;3.80;;
76826;SDS011;65788;52.284;20.890;2023-11-21T10:45:46;6.40;;;4.40;;
76826;SDS011;65788;52.284;20.890;2023-11-21T10:48:15;10.20;;;5.70;;
76826;SDS011;65788;52.284;20.890;2023-11-21T10:50:43;13.20;;;6.30;;
76826;SDS011;65788;52.284;20.890;2023-11-21T10:53:12;15.40;;;6.60;;
76826;SDS011;65788;52.284;20.890;2023-11-21T10:55:39;11.90;;;6.40;;
76826;SDS011;65788;52.284;20.890;2023-11-21T10:58:06;12.60;;;7.10;;
76826;SDS011;65788;52.284;20.890;2023-11-21T11:00:36;11.30;;;7.70;;
76826;SDS011;65788;52.284;20.890;2023-11-21T11:03:06;13.00;;;7.90;;
76826;SDS011;65788;52.284;20.890;2023-11-21T11:05:43;13.10;;;7.50;;
76826;SDS011;65788;52.284;20.890;2023-11-21T11:08:18;12.40;;;7.80;;
76826;SDS011;65788;52.284;20.890;2023-11-21T11:10:46;11.70;;;7.30;;
76826;SDS011;65788;52.284;20.890;2023-11-21T11:13:15;12.50;;;8.00;;
76826;SDS011;65788;52.284;20.890;2023-11-21T11:15:44;15.60;;;8.30;;
76826;SDS011;65788;52.284;20.890;2023-11-21T11:18:14;12.90;;;8.80;;
76826;SDS011;65788;52.284;20.890;2023-11-21T11:20:42;14.00;;;8.50;;
76826;SDS011;65788;52.284;20.890;2023-11-21T11:23:32;14.40;;;7.30;;
76826;SDS011;65788;52.284;20.890;2023-11-21T11:29:14;12.90;;;7.10;;
76826;SDS011;65788;52.284;20.890;2023-11-21T11:31:58;11.20;;;7.20;;
76826;SDS011;65788;52.284;20.890;2023-11-21T11:37:11;13.40;;;7.50;;
76826;SDS011;65788;52.284;20.890;2023-11-21T11:39:42;11.40;;;7.30;;
76826;SDS011;65788;52.284;20.890;2023-11-21T11:42:13;12.10;;;7.10;;
76826;SDS011;65788;52.284;20.890;2023-11-21T11:47:33;18.40;;;11.10;;
76826;SDS011;65788;52.284;20.890;2023-11-21T11:50:10;12.00;;;7.50;;
76826;SDS011;65788;52.284;20.890;2023-11-21T11:55:16;10.00;;;6.80;;
76826;SDS011;65788;52.284;20.890;2023-11-21T11:57:48;10.90;;;7.20;;
76826;SDS011;65788;52.284;20.890;2023-11-21T12:00:22;11.60;;;7.00;;
76826;SDS011;65788;52.284;20.890;2023-11-21T12:03:07;11.20;;;7.30;;
76826;SDS011;65788;52.284;20.890;2023-11-21T12:05:36;10.40;;;6.80;;
76826;SDS011;65788;52.284;20.890;2023-11-21T12:08:06;10.70;;;6.90;;
76826;SDS011;65788;52.284;20.890;2023-11-21T12:10:34;10.00;;;6.50;;
76826;SDS011;65788;52.284;20.890;2023-11-21T12:15:36;10.90;;;6.50;;
76826;SDS011;65788;52.284;20.890;2023-11-21T12:18:04;9.40;;;6.40;;
76826;SDS011;65788;52.284;20.890;2023-11-21T12:20:32;13.20;;;6.20;;
76826;SDS011;65788;52.284;20.890;2023-11-21T12:23:05;10.30;;;5.90;;
76826;SDS011;65788;52.284;20.890;2023-11-21T12:25:32;9.00;;;6.00;;
76826;SDS011;65788;52.284;20.890;2023-11-21T12:28:00;10.30;;;5.80;;
76826;SDS011;65788;52.284;20.890;2023-11-21T12:30:30;9.80;;;5.90;;
76826;SDS011;65788;52.284;20.890;2023-11-21T12:32:59;10.30;;;5.80;;
76826;SDS011;65788;52.284;20.890;2023-11-21T12:35:30;10.10;;;5.60;;
76826;SDS011;65788;52.284;20.890;2023-11-21T12:38:03;10.40;;;5.90;;
76826;SDS011;65788;52.284;20.890;2023-11-21T12:40:31;8.60;;;5.50;;
76826;SDS011;65788;52.284;20.890;2023-11-21T12:42:59;9.60;;;5.40;;
76826;SDS011;65788;52.284;20.890;2023-11-21T12:45:28;8.90;;;5.40;;
76826;SDS011;65788;52.284;20.890;2023-11-21T12:47:56;8.80;;;5.10;;
76826;SDS011;65788;52.284;20.890;2023-11-21T12:50:27;8.70;;;5.30;;
76826;SDS011;65788;52.284;20.890;2023-11-21T12:52:59;7.90;;;5.40;;
76826;SDS011;65788;52.284;20.890;2023-11-21T12:55:29;7.80;;;5.00;;
76826;SDS011;65788;52.284;20.890;2023-11-21T12:57:57;6.80;;;4.90;;
76826;SDS011;65788;52.284;20.890;2023-11-21T13:00:30;7.20;;;5.10;;
76826;SDS011;65788;52.284;20.890;2023-11-21T13:03:00;9.40;;;5.40;;
76826;SDS011;65788;52.284;20.890;2023-11-21T13:05:32;7.00;;;4.80;;
76826;SDS011;65788;52.284;20.890;2023-11-21T13:08:01;8.00;;;5.00;;
76826;SDS011;65788;52.284;20.890;2023-11-21T13:10:34;6.50;;;4.50;;
76826;SDS011;65788;52.284;20.890;2023-11-21T13:13:04;8.20;;;5.40;;
76826;SDS011;65788;52.284;20.890;2023-11-21T13:15:39;6.80;;;4.50;;
76826;SDS011;65788;52.284;20.890;2023-11-21T13:18:07;8.30;;;5.00;;
76826;SDS011;65788;52.284;20.890;2023-11-21T13:20:40;7.70;;;4.90;;
76826;SDS011;65788;52.284;20.890;2023-11-21T13:23:08;7.50;;;4.60;;
76826;SDS011;65788;52.284;20.890;2023-11-21T13:25:38;7.30;;;4.80;;
76826;SDS011;65788;52.284;20.890;2023-11-21T13:28:07;6.70;;;4.70;;
76826;SDS011;65788;52.284;20.890;2023-11-21T13:30:38;8.80;;;5.50;;
76826;SDS011;65788;52.284;20.890;2023-11-21T13:33:07;8.00;;;4.80;;
76826;SDS011;65788;52.284;20.890;2023-11-21T13:35:36;7.50;;;4.60;;
76826;SDS011;65788;52.284;20.890;2023-11-21T13:38:09;7.10;;;4.50;;
76826;SDS011;65788;52.284;20.890;2023-11-21T13:40:40;6.40;;;4.30;;
76826;SDS011;65788;52.284;20.890;2023-11-21T13:43:13;6.40;;;4.50;;
76826;SDS011;65788;52.284;20.890;2023-11-21T13:45:43;7.40;;;4.20;;
76826;SDS011;65788;52.284;20.890;2023-11-21T13:48:12;5.70;;;4.10;;
76826;SDS011;65788;52.284;20.890;2023-11-21T13:50:51;6.70;;;4.20;;
76826;SDS011;65788;52.284;20.890;2023-11-21T13:53:27;6.70;;;4.60;;
76826;SDS011;65788;52.284;20.890;2023-11-21T13:55:54;6.30;;;4.20;;
76826;SDS011;65788;52.284;20.890;2023-11-21T13:58:24;6.80;;;4.30;;
76826;SDS011;65788;52.284;20.890;2023-11-21T14:01:09;6.30;;;4.50;;
76826;SDS011;65788;52.284;20.890;2023-11-21T14:03:56;6.70;;;4.10;;
76826;SDS011;65788;52.284;20.890;2023-11-21T14:06:29;6.50;;;4.20;;
76826;SDS011;65788;52.284;20.890;2023-11-21T14:09:02;6.10;;;4.40;;
76826;SDS011;65788;52.284;20.890;2023-11-21T14:11:32;7.40;;;4.50;;
76826;SDS011;65788;52.284;20.890;2023-11-21T14:14:04;7.30;;;3.90;;
76826;SDS011;65788;52.284;20.890;2023-11-21T14:16:32;7.30;;;4.70;;
76826;SDS011;65788;52.284;20.890;2023-11-21T14:19:01;6.20;;;4.50;;
76826;SDS011;65788;52.284;20.890;2023-11-21T14:21:40;6.30;;;4.20;;
76826;SDS011;65788;52.284;20.890;2023-11-21T14:24:10;5.70;;;4.30;;
76826;SDS011;65788;52.284;20.890;2023-11-21T14:26:40;6.00;;;4.50;;
76826;SDS011;65788;52.284;20.890;2023-11-21T14:29:09;6.60;;;4.60;;
76826;SDS011;65788;52.284;20.890;2023-11-21T14:31:39;7.10;;;4.80;;
76826;SDS011;65788;52.284;20.890;2023-11-21T14:34:07;6.00;;;4.20;;
76826;SDS011;65788;52.284;20.890;2023-11-21T14:36:35;7.70;;;4.40;;
76826;SDS011;65788;52.284;20.890;2023-11-21T14:39:06;7.00;;;4.30;;
76826;SDS011;65788;52.284;20.890;2023-11-21T14:41:47;5.30;;;3.70;;
76826;SDS011;65788;52.284;20.890;2023-11-21T14:44:14;5.60;;;4.30;;
76826;SDS011;65788;52.284;20.890;2023-11-21T14:46:42;7.60;;;4.50;;
76826;SDS011;65788;52.284;20.890;2023-11-21T14:49:14;5.80;;;4.20;;
76826;SDS011;65788;52.284;20.890;2023-11-21T14:51:48;6.40;;;4.20;;
76826;SDS011;65788;52.284;20.890;2023-11-21T14:54:29;8.40;;;4.30;;
76826;SDS011;65788;52.284;20.890;2023-11-21T14:57:13;7.10;;;4.40;;
76826;SDS011;65788;52.284;20.890;2023-11-21T14:59:48;7.30;;;4.10;;
76826;SDS011;65788;52.284;20.890;2023-11-21T15:02:19;7.10;;;4.50;;
76826;SDS011;65788;52.284;20.890;2023-11-21T15:05:09;6.90;;;4.20;;
76826;SDS011;65788;52.284;20.890;2023-11-21T15:07:41;6.80;;;3.70;;
76826;SDS011;65788;52.284;20.890;2023-11-21T15:10:08;5.60;;;4.00;;
76826;SDS011;65788;52.284;20.890;2023-11-21T15:12:41;5.90;;;4.20;;